sensor_id;sensor_type;location;lat;lon;timestamp;pressure;altitude;pressure_sealevel;temperature;humidity
7200;BME280;3641;49.082;8.200;2023-04-25T00:02:15;99769.50;;;8.43;83.90
7200;BME280;3641;49.082;8.200;2023-04-25T00:04:41;99771.31;;;8.65;80.51
7200;BME280;3641;49.082;8.200;2023-04-25T00:07:08;99774.41;;;8.77;80.23
7200;BME280;3641;49.082;8.200;2023-04-25T00:09:37;99782.97;;;8.89;79.39
7200;BME280;3641;49.082;8.200;2023-04-25T00:12:03;99778.34;;;8.45;82.54
7200;BME280;3641;49.082;8.200;2023-04-25T00:14:30;99782.03;;;8.67;81.83
7200;BME280;3641;49.082;8.200;2023-04-25T00:16:58;99776.50;;;8.22;84.06
7200;BME280;3641;49.082;8.200;2023-04-25T00:19:26;99778.31;;;8.07;84.54
7200;BME280;3641;49.082;8.200;2023-04-25T00:21:53;99774.59;;;8.08;84.43
7200;BME280;3641;49.082;8.200;2023-04-25T00:24:20;99774.41;;;8.47;81.36
7200;BME280;3641;49.082;8.200;2023-04-25T00:26:47;99768.59;;;7.89;84.95
7200;BME280;3641;49.082;8.200;2023-04-25T00:29:14;99765.91;;;7.89;86.27
7200;BME280;3641;49.082;8.200;2023-04-25T00:31:41;99767.66;;;8.43;83.17
7200;BME280;3641;49.082;8.200;2023-04-25T00:34:07;99762.97;;;8.14;85.99
7200;BME280;3641;49.082;8.200;2023-04-25T00:36:34;99761.53;;;8.03;84.17
7200;BME280;3641;49.082;8.200;2023-04-25T00:39:01;99759.25;;;8.30;84.64
7200;BME280;3641;49.082;8.200;2023-04-25T00:41:29;99762.72;;;8.39;84.34
7200;BME280;3641;49.082;8.200;2023-04-25T00:43:57;99759.19;;;8.68;79.63
7200;BME280;3641;49.082;8.200;2023-04-25T00:46:24;99759.47;;;8.43;82.34
7200;BME280;3641;49.082;8.200;2023-04-25T00:48:51;99755.81;;;7.75;85.62
7200;BME280;3641;49.082;8.200;2023-04-25T00:51:20;99756.38;;;8.08;84.01
7200;BME280;3641;49.082;8.200;2023-04-25T00:53:47;99755.38;;;8.09;84.29
7200;BME280;3641;49.082;8.200;2023-04-25T00:56:15;99755.94;;;8.19;83.66
7200;BME280;3641;49.082;8.200;2023-04-25T00:58:42;99743.97;;;8.29;82.20
7200;BME280;3641;49.082;8.200;2023-04-25T01:01:10;99737.09;;;8.18;83.40
7200;BME280;3641;49.082;8.200;2023-04-25T01:03:39;99733.63;;;8.47;80.55
7200;BME280;3641;49.082;8.200;2023-04-25T01:06:07;99739.25;;;7.85;85.29
7200;BME280;3641;49.082;8.200;2023-04-25T01:08:34;99747.59;;;8.21;83.78
7200;BME280;3641;49.082;8.200;2023-04-25T01:11:01;99737.53;;;8.07;83.93
7200;BME280;3641;49.082;8.200;2023-04-25T01:13:27;99749.94;;;8.24;84.18
7200;BME280;3641;49.082;8.200;2023-04-25T01:15:55;99755.88;;;7.67;85.66
7200;BME280;3641;49.082;8.200;2023-04-25T01:18:23;99752.66;;;8.09;84.64
7200;BME280;3641;49.082;8.200;2023-04-25T01:20:50;99749.84;;;7.79;84.95
7200;BME280;3641;49.082;8.200;2023-04-25T01:23:19;99752.88;;;7.61;86.17
7200;BME280;3641;49.082;8.200;2023-04-25T01:25:46;99746.75;;;7.59;86.32
7200;BME280;3641;49.082;8.200;2023-04-25T01:28:13;99749.13;;;8.24;80.81
7200;BME280;3641;49.082;8.200;2023-04-25T01:30:40;99752.84;;;8.23;82.43
7200;BME280;3641;49.082;8.200;2023-04-25T01:33:07;99749.16;;;8.00;83.76
7200;BME280;3641;49.082;8.200;2023-04-25T01:35:34;99753.66;;;8.08;83.57
7200;BME280;3641;49.082;8.200;2023-04-25T01:38:00;99751.03;;;7.77;85.74
7200;BME280;3641;49.082;8.200;2023-04-25T01:40:29;99752.50;;;8.26;81.46
7200;BME280;3641;49.082;8.200;2023-04-25T01:42:55;99754.03;;;8.43;81.67
7200;BME280;3641;49.082;8.200;2023-04-25T01:45:22;99754.72;;;7.61;86.59
7200;BME280;3641;49.082;8.200;2023-04-25T01:47:48;99753.53;;;7.87;86.79
7200;BME280;3641;49.082;8.200;2023-04-25T01:50:16;99756.09;;;7.80;86.92
7200;BME280;3641;49.082;8.200;2023-04-25T01:52:43;99747.22;;;8.09;83.16
7200;BME280;3641;49.082;8.200;2023-04-25T01:55:09;99752.78;;;7.93;85.11
7200;BME280;3641;49.082;8.200;2023-04-25T01:57:38;99755.28;;;7.56;87.59
7200;BME280;3641;49.082;8.200;2023-04-25T02:00:06;99753.66;;;7.93;86.61
7200;BME280;3641;49.082;8.200;2023-04-25T02:02:33;99749.41;;;7.91;86.19
7200;BME280;3641;49.082;8.200;2023-04-25T02:05:00;99760.38;;;8.21;84.50
7200;BME280;3641;49.082;8.200;2023-04-25T02:07:27;99746.31;;;8.17;85.49
7200;BME280;3641;49.082;8.200;2023-04-25T02:09:53;99739.94;;;8.40;82.44
7200;BME280;3641;49.082;8.200;2023-04-25T02:12:19;99741.88;;;8.01;87.27
7200;BME280;3641;49.082;8.200;2023-04-25T02:14:47;99741.16;;;7.84;87.26
7200;BME280;3641;49.082;8.200;2023-04-25T02:17:14;99739.44;;;7.83;86.25
7200;BME280;3641;49.082;8.200;2023-04-25T02:19:41;99748.34;;;7.54;88.38
7200;BME280;3641;49.082;8.200;2023-04-25T02:22:07;99746.16;;;7.49;88.48
7200;BME280;3641;49.082;8.200;2023-04-25T02:24:34;99743.25;;;7.51;88.58
7200;BME280;3641;49.082;8.200;2023-04-25T02:27:00;99738.78;;;7.35;88.69
7200;BME280;3641;49.082;8.200;2023-04-25T02:29:27;99734.88;;;7.37;89.95
7200;BME280;3641;49.082;8.200;2023-04-25T02:31:55;99735.59;;;7.77;87.31
7200;BME280;3641;49.082;8.200;2023-04-25T02:34:21;99725.63;;;7.46;88.96
7200;BME280;3641;49.082;8.200;2023-04-25T02:36:48;99730.75;;;7.41;89.30
7200;BME280;3641;49.082;8.200;2023-04-25T02:39:15;99727.25;;;7.56;88.74
7200;BME280;3641;49.082;8.200;2023-04-25T02:41:42;99727.97;;;7.50;89.28
7200;BME280;3641;49.082;8.200;2023-04-25T02:44:08;99734.81;;;7.45;90.36
7200;BME280;3641;49.082;8.200;2023-04-25T02:46:35;99720.47;;;7.60;87.87
7200;BME280;3641;49.082;8.200;2023-04-25T02:49:03;99724.94;;;7.91;85.34
7200;BME280;3641;49.082;8.200;2023-04-25T02:51:30;99721.09;;;7.85;87.12
7200;BME280;3641;49.082;8.200;2023-04-25T02:53:57;99722.19;;;8.14;83.38
7200;BME280;3641;49.082;8.200;2023-04-25T02:56:23;99728.28;;;7.78;87.31
7200;BME280;3641;49.082;8.200;2023-04-25T02:58:52;99725.38;;;7.79;87.25
7200;BME280;3641;49.082;8.200;2023-04-25T03:01:18;99720.88;;;7.72;88.47
7200;BME280;3641;49.082;8.200;2023-04-25T03:03:45;99719.88;;;7.88;85.97
7200;BME280;3641;49.082;8.200;2023-04-25T03:06:13;99717.66;;;7.68;88.96
7200;BME280;3641;49.082;8.200;2023-04-25T03:08:39;99726.63;;;7.54;89.74
7200;BME280;3641;49.082;8.200;2023-04-25T03:11:06;99726.75;;;7.98;85.09
7200;BME280;3641;49.082;8.200;2023-04-25T03:13:32;99728.06;;;7.64;88.75
7200;BME280;3641;49.082;8.200;2023-04-25T03:15:59;99727.03;;;7.66;89.46
7200;BME280;3641;49.082;8.200;2023-04-25T03:18:26;99725.22;;;7.81;89.36
7200;BME280;3641;49.082;8.200;2023-04-25T03:20:52;99727.44;;;7.54;89.23
7200;BME280;3641;49.082;8.200;2023-04-25T03:23:20;99734.50;;;7.63;88.88
7200;BME280;3641;49.082;8.200;2023-04-25T03:25:46;99730.59;;;7.43;90.17
7200;BME280;3641;49.082;8.200;2023-04-25T03:28:13;99725.75;;;7.76;87.55
7200;BME280;3641;49.082;8.200;2023-04-25T03:30:39;99723.50;;;7.80;88.30
7200;BME280;3641;49.082;8.200;2023-04-25T03:33:06;99721.53;;;7.51;88.77
7200;BME280;3641;49.082;8.200;2023-04-25T03:35:32;99719.16;;;7.94;85.02
7200;BME280;3641;49.082;8.200;2023-04-25T03:37:59;99714.03;;;8.14;85.64
7200;BME280;3641;49.082;8.200;2023-04-25T03:40:26;99710.50;;;8.28;82.59
7200;BME280;3641;49.082;8.200;2023-04-25T03:42:53;99708.34;;;8.24;83.84
7200;BME280;3641;49.082;8.200;2023-04-25T03:45:19;99713.41;;;8.42;81.93
7200;BME280;3641;49.082;8.200;2023-04-25T03:47:46;99714.34;;;8.34;83.38
7200;BME280;3641;49.082;8.200;2023-04-25T03:50:12;99712.75;;;8.40;83.16
7200;BME280;3641;49.082;8.200;2023-04-25T03:52:38;99717.06;;;8.34;84.51
7200;BME280;3641;49.082;8.200;2023-04-25T03:55:05;99716.88;;;8.35;82.56
7200;BME280;3641;49.082;8.200;2023-04-25T03:57:33;99716.53;;;8.00;87.76
7200;BME280;3641;49.082;8.200;2023-04-25T04:00:00;99720.31;;;7.99;86.16
7200;BME280;3641;49.082;8.200;2023-04-25T04:02:26;99716.44;;;7.94;85.99
7200;BME280;3641;49.082;8.200;2023-04-25T04:04:53;99716.16;;;7.66;87.60
7200;BME280;3641;49.082;8.200;2023-04-25T04:07:21;99716.09;;;7.51;89.06
7200;BME280;3641;49.082;8.200;2023-04-25T04:09:47;99713.13;;;7.84;86.58
7200;BME280;3641;49.082;8.200;2023-04-25T04:12:14;99711.78;;;8.03;85.18
7200;BME280;3641;49.082;8.200;2023-04-25T04:14:41;99707.59;;;8.30;82.67
7200;BME280;3641;49.082;8.200;2023-04-25T04:17:08;99714.59;;;8.24;83.51
7200;BME280;3641;49.082;8.200;2023-04-25T04:19:34;99708.63;;;8.29;82.72
7200;BME280;3641;49.082;8.200;2023-04-25T04:22:01;99713.31;;;8.35;84.90
7200;BME280;3641;49.082;8.200;2023-04-25T04:24:27;99717.69;;;8.21;83.91
7200;BME280;3641;49.082;8.200;2023-04-25T04:26:54;99713.69;;;8.17;84.24
7200;BME280;3641;49.082;8.200;2023-04-25T04:29:20;99712.66;;;8.33;82.31
7200;BME280;3641;49.082;8.200;2023-04-25T04:31:49;99722.31;;;8.21;83.58
7200;BME280;3641;49.082;8.200;2023-04-25T04:34:15;99710.28;;;8.15;83.10
7200;BME280;3641;49.082;8.200;2023-04-25T04:36:43;99717.13;;;8.26;82.32
7200;BME280;3641;49.082;8.200;2023-04-25T04:39:10;99720.88;;;8.25;82.13
7200;BME280;3641;49.082;8.200;2023-04-25T04:41:36;99714.88;;;8.14;84.82
7200;BME280;3641;49.082;8.200;2023-04-25T04:44:03;99717.09;;;8.49;81.47
7200;BME280;3641;49.082;8.200;2023-04-25T04:46:29;99714.28;;;8.57;80.17
7200;BME280;3641;49.082;8.200;2023-04-25T04:48:57;99711.44;;;8.35;82.96
7200;BME280;3641;49.082;8.200;2023-04-25T04:51:24;99719.53;;;8.44;81.49
7200;BME280;3641;49.082;8.200;2023-04-25T04:53:50;99721.94;;;8.39;82.39
7200;BME280;3641;49.082;8.200;2023-04-25T04:56:17;99724.97;;;8.44;83.75
7200;BME280;3641;49.082;8.200;2023-04-25T04:58:45;99726.16;;;8.41;84.38
7200;BME280;3641;49.082;8.200;2023-04-25T05:01:14;99725.47;;;8.09;87.40
7200;BME280;3641;49.082;8.200;2023-04-25T05:03:41;99729.19;;;7.93;89.17
7200;BME280;3641;49.082;8.200;2023-04-25T05:06:09;99726.59;;;8.15;86.46
7200;BME280;3641;49.082;8.200;2023-04-25T05:08:35;99734.41;;;8.33;86.18
7200;BME280;3641;49.082;8.200;2023-04-25T05:11:02;99727.56;;;8.22;86.49
7200;BME280;3641;49.082;8.200;2023-04-25T05:13:29;99733.09;;;7.91;88.33
7200;BME280;3641;49.082;8.200;2023-04-25T05:15:55;99730.00;;;8.32;85.16
7200;BME280;3641;49.082;8.200;2023-04-25T05:18:22;99731.81;;;8.02;86.73
7200;BME280;3641;49.082;8.200;2023-04-25T05:20:48;99739.84;;;8.33;84.17
7200;BME280;3641;49.082;8.200;2023-04-25T05:23:16;99735.84;;;8.06;85.85
7200;BME280;3641;49.082;8.200;2023-04-25T05:25:42;99730.84;;;8.32;84.79
7200;BME280;3641;49.082;8.200;2023-04-25T05:28:10;99732.81;;;8.39;83.71
7200;BME280;3641;49.082;8.200;2023-04-25T05:30:36;99734.34;;;7.88;88.37
7200;BME280;3641;49.082;8.200;2023-04-25T05:33:03;99744.31;;;8.11;86.97
7200;BME280;3641;49.082;8.200;2023-04-25T05:35:29;99745.72;;;8.22;85.38
7200;BME280;3641;49.082;8.200;2023-04-25T05:37:56;99740.44;;;8.05;87.14
7200;BME280;3641;49.082;8.200;2023-04-25T05:40:24;99743.03;;;7.84;88.75
7200;BME280;3641;49.082;8.200;2023-04-25T05:42:50;99744.78;;;8.14;86.40
7200;BME280;3641;49.082;8.200;2023-04-25T05:45:17;99746.00;;;8.12;87.75
7200;BME280;3641;49.082;8.200;2023-04-25T05:47:43;99742.09;;;7.91;88.58
7200;BME280;3641;49.082;8.200;2023-04-25T05:50:10;99754.06;;;7.82;88.76
7200;BME280;3641;49.082;8.200;2023-04-25T05:52:36;99743.88;;;7.84;89.13
7200;BME280;3641;49.082;8.200;2023-04-25T05:55:04;99752.13;;;7.91;89.87
7200;BME280;3641;49.082;8.200;2023-04-25T05:57:32;99757.28;;;8.24;86.31
7200;BME280;3641;49.082;8.200;2023-04-25T05:59:58;99757.72;;;8.12;88.03
7200;BME280;3641;49.082;8.200;2023-04-25T06:02:25;99760.44;;;8.50;83.97
7200;BME280;3641;49.082;8.200;2023-04-25T06:04:52;99756.44;;;8.38;86.76
7200;BME280;3641;49.082;8.200;2023-04-25T06:07:18;99764.38;;;8.25;87.57
7200;BME280;3641;49.082;8.200;2023-04-25T06:09:45;99762.28;;;8.12;90.32
7200;BME280;3641;49.082;8.200;2023-04-25T06:12:12;99762.91;;;8.22;88.22
7200;BME280;3641;49.082;8.200;2023-04-25T06:14:40;99768.53;;;8.21;89.32
7200;BME280;3641;49.082;8.200;2023-04-25T06:17:07;99769.34;;;7.83;91.33
7200;BME280;3641;49.082;8.200;2023-04-25T06:19:33;99762.34;;;8.27;88.71
7200;BME280;3641;49.082;8.200;2023-04-25T06:22:00;99767.91;;;8.48;86.88
7200;BME280;3641;49.082;8.200;2023-04-25T06:24:27;99770.50;;;8.42;87.43
7200;BME280;3641;49.082;8.200;2023-04-25T06:26:54;99768.16;;;8.24;89.58
7200;BME280;3641;49.082;8.200;2023-04-25T06:29:20;99773.66;;;8.53;87.02
7200;BME280;3641;49.082;8.200;2023-04-25T06:31:48;99776.09;;;8.78;84.39
7200;BME280;3641;49.082;8.200;2023-04-25T06:34:15;99779.09;;;8.53;87.61
7200;BME280;3641;49.082;8.200;2023-04-25T06:36:41;99784.06;;;8.50;86.94
7200;BME280;3641;49.082;8.200;2023-04-25T06:39:09;99780.03;;;8.61;86.48
7200;BME280;3641;49.082;8.200;2023-04-25T06:41:35;99781.47;;;8.71;85.57
7200;BME280;3641;49.082;8.200;2023-04-25T06:44:02;99787.47;;;8.67;87.07
7200;BME280;3641;49.082;8.200;2023-04-25T06:46:28;99782.00;;;8.52;87.00
7200;BME280;3641;49.082;8.200;2023-04-25T06:48:56;99789.91;;;8.62;87.79
7200;BME280;3641;49.082;8.200;2023-04-25T06:51:23;99794.63;;;8.30;89.81
7200;BME280;3641;49.082;8.200;2023-04-25T06:53:49;99790.84;;;8.31;89.60
7200;BME280;3641;49.082;8.200;2023-04-25T06:56:16;99799.38;;;8.28;90.43
7200;BME280;3641;49.082;8.200;2023-04-25T06:58:42;99793.44;;;8.47;88.24
7200;BME280;3641;49.082;8.200;2023-04-25T07:01:09;99797.72;;;8.42;89.48
7200;BME280;3641;49.082;8.200;2023-04-25T07:03:35;99790.16;;;8.52;87.53
7200;BME280;3641;49.082;8.200;2023-04-25T07:06:04;99792.72;;;8.68;86.81
7200;BME280;3641;49.082;8.200;2023-04-25T07:08:30;99802.38;;;8.56;88.81
7200;BME280;3641;49.082;8.200;2023-04-25T07:10:57;99812.13;;;8.50;88.85
7200;BME280;3641;49.082;8.200;2023-04-25T07:13:23;99813.84;;;8.66;88.70
7200;BME280;3641;49.082;8.200;2023-04-25T07:15:50;99815.41;;;8.61;88.31
7200;BME280;3641;49.082;8.200;2023-04-25T07:18:16;99809.03;;;8.68;86.72
7200;BME280;3641;49.082;8.200;2023-04-25T07:20:43;99803.59;;;8.68;89.07
7200;BME280;3641;49.082;8.200;2023-04-25T07:23:11;99814.63;;;8.52;89.75
7200;BME280;3641;49.082;8.200;2023-04-25T07:25:37;99812.88;;;8.59;90.02
7200;BME280;3641;49.082;8.200;2023-04-25T07:28:04;99811.94;;;8.67;88.10
7200;BME280;3641;49.082;8.200;2023-04-25T07:30:30;99818.31;;;8.59;90.41
7200;BME280;3641;49.082;8.200;2023-04-25T07:32:57;99813.75;;;8.89;85.60
7200;BME280;3641;49.082;8.200;2023-04-25T07:35:23;99818.59;;;8.64;90.04
7200;BME280;3641;49.082;8.200;2023-04-25T07:37:50;99820.75;;;8.69;90.44
7200;BME280;3641;49.082;8.200;2023-04-25T07:40:18;99817.44;;;8.44;91.11
7200;BME280;3641;49.082;8.200;2023-04-25T07:42:44;99820.56;;;8.70;88.66
7200;BME280;3641;49.082;8.200;2023-04-25T07:45:11;99824.91;;;8.80;88.03
7200;BME280;3641;49.082;8.200;2023-04-25T07:47:37;99829.50;;;8.94;87.27
7200;BME280;3641;49.082;8.200;2023-04-25T07:50:05;99830.72;;;8.91;87.77
7200;BME280;3641;49.082;8.200;2023-04-25T07:52:31;99834.22;;;9.00;87.07
7200;BME280;3641;49.082;8.200;2023-04-25T07:54:58;99840.22;;;8.81;90.27
7200;BME280;3641;49.082;8.200;2023-04-25T07:57:26;99838.88;;;8.77;90.01
7200;BME280;3641;49.082;8.200;2023-04-25T07:59:53;99839.38;;;8.95;87.38
7200;BME280;3641;49.082;8.200;2023-04-25T08:02:20;99852.69;;;8.90;88.86
7200;BME280;3641;49.082;8.200;2023-04-25T08:04:46;99851.66;;;8.76;90.80
7200;BME280;3641;49.082;8.200;2023-04-25T08:07:14;99858.69;;;8.85;89.21
7200;BME280;3641;49.082;8.200;2023-04-25T08:09:41;99865.91;;;8.93;90.23
7200;BME280;3641;49.082;8.200;2023-04-25T08:12:07;99864.41;;;8.76;91.05
7200;BME280;3641;49.082;8.200;2023-04-25T08:14:35;99873.06;;;8.79;90.74
7200;BME280;3641;49.082;8.200;2023-04-25T08:17:02;99874.91;;;8.79;90.45
7200;BME280;3641;49.082;8.200;2023-04-25T08:19:29;99879.72;;;8.91;89.22
7200;BME280;3641;49.082;8.200;2023-04-25T08:21:56;99884.50;;;8.89;91.65
7200;BME280;3641;49.082;8.200;2023-04-25T08:24:22;99886.41;;;9.04;88.59
7200;BME280;3641;49.082;8.200;2023-04-25T08:26:51;99889.03;;;8.82;92.00
7200;BME280;3641;49.082;8.200;2023-04-25T08:29:17;99896.41;;;8.88;91.16
7200;BME280;3641;49.082;8.200;2023-04-25T08:31:45;99903.47;;;8.98;90.06
7200;BME280;3641;49.082;8.200;2023-04-25T08:34:12;99906.53;;;8.65;91.90
7200;BME280;3641;49.082;8.200;2023-04-25T08:36:38;99905.09;;;8.92;90.69
7200;BME280;3641;49.082;8.200;2023-04-25T08:39:05;99906.75;;;8.55;92.64
7200;BME280;3641;49.082;8.200;2023-04-25T08:41:32;99912.38;;;8.77;91.18
7200;BME280;3641;49.082;8.200;2023-04-25T08:43:59;99914.34;;;8.98;89.92
7200;BME280;3641;49.082;8.200;2023-04-25T08:46:27;99913.69;;;8.81;91.87
7200;BME280;3641;49.082;8.200;2023-04-25T08:49:00;99915.31;;;9.05;89.62
7200;BME280;3641;49.082;8.200;2023-04-25T08:51:30;99923.50;;;9.05;91.22
7200;BME280;3641;49.082;8.200;2023-04-25T08:54:07;99928.38;;;9.24;88.89
7200;BME280;3641;49.082;8.200;2023-04-25T08:56:34;99925.84;;;9.08;91.11
7200;BME280;3641;49.082;8.200;2023-04-25T08:59:01;99929.22;;;9.10;90.44
7200;BME280;3641;49.082;8.200;2023-04-25T09:01:28;99932.69;;;9.04;91.00
7200;BME280;3641;49.082;8.200;2023-04-25T09:03:57;99933.16;;;9.07;90.79
7200;BME280;3641;49.082;8.200;2023-04-25T09:06:23;99946.25;;;9.27;89.72
7200;BME280;3641;49.082;8.200;2023-04-25T09:08:51;99945.56;;;9.25;89.62
7200;BME280;3641;49.082;8.200;2023-04-25T09:11:18;99951.00;;;9.25;88.62
7200;BME280;3641;49.082;8.200;2023-04-25T09:13:45;99948.28;;;9.10;90.59
7200;BME280;3641;49.082;8.200;2023-04-25T09:16:11;99958.91;;;9.20;88.86
7200;BME280;3641;49.082;8.200;2023-04-25T09:18:39;99962.19;;;9.15;90.06
7200;BME280;3641;49.082;8.200;2023-04-25T09:21:08;99973.88;;;9.01;90.97
7200;BME280;3641;49.082;8.200;2023-04-25T09:23:39;99979.13;;;8.87;92.81
7200;BME280;3641;49.082;8.200;2023-04-25T09:26:07;99975.66;;;8.94;92.36
7200;BME280;3641;49.082;8.200;2023-04-25T09:28:34;99984.94;;;8.84;91.80
7200;BME280;3641;49.082;8.200;2023-04-25T09:31:03;99997.69;;;8.61;92.57
7200;BME280;3641;49.082;8.200;2023-04-25T09:33:30;99997.88;;;8.28;95.61
7200;BME280;3641;49.082;8.200;2023-04-25T09:36:02;99998.28;;;8.71;91.84
7200;BME280;3641;49.082;8.200;2023-04-25T09:38:32;100010.81;;;8.57;93.80
7200;BME280;3641;49.082;8.200;2023-04-25T09:40:58;100012.00;;;8.54;93.76
7200;BME280;3641;49.082;8.200;2023-04-25T09:43:25;100010.47;;;8.60;92.41
7200;BME280;3641;49.082;8.200;2023-04-25T09:45:53;100013.44;;;8.50;93.60
7200;BME280;3641;49.082;8.200;2023-04-25T09:48:25;100023.19;;;8.60;93.64
7200;BME280;3641;49.082;8.200;2023-04-25T09:51:04;100016.59;;;8.77;91.79
7200;BME280;3641;49.082;8.200;2023-04-25T09:53:32;100015.88;;;8.83;92.45
7200;BME280;3641;49.082;8.200;2023-04-25T09:55:59;100027.44;;;8.85;91.30
7200;BME280;3641;49.082;8.200;2023-04-25T09:58:29;100032.50;;;8.88;91.58
7200;BME280;3641;49.082;8.200;2023-04-25T10:00:59;100026.06;;;8.89;90.73
7200;BME280;3641;49.082;8.200;2023-04-25T10:03:27;100031.44;;;8.75;90.68
7200;BME280;3641;49.082;8.200;2023-04-25T10:05:57;100033.63;;;8.79;89.42
7200;BME280;3641;49.082;8.200;2023-04-25T10:08:25;100042.41;;;8.66;89.92
7200;BME280;3641;49.082;8.200;2023-04-25T10:10:56;100041.09;;;8.77;88.69
7200;BME280;3641;49.082;8.200;2023-04-25T10:13:23;100040.38;;;8.60;90.96
7200;BME280;3641;49.082;8.200;2023-04-25T10:15:51;100045.72;;;8.77;90.42
7200;BME280;3641;49.082;8.200;2023-04-25T10:18:18;100047.78;;;8.75;89.63
7200;BME280;3641;49.082;8.200;2023-04-25T10:20:45;100051.72;;;8.95;88.06
7200;BME280;3641;49.082;8.200;2023-04-25T10:23:13;100047.75;;;8.98;87.61
7200;BME280;3641;49.082;8.200;2023-04-25T10:25:42;100052.34;;;8.74;90.43
7200;BME280;3641;49.082;8.200;2023-04-25T10:28:11;100051.03;;;8.93;87.54
7200;BME280;3641;49.082;8.200;2023-04-25T10:30:37;100057.38;;;8.85;90.08
7200;BME280;3641;49.082;8.200;2023-04-25T10:33:16;100056.41;;;8.78;89.77
7200;BME280;3641;49.082;8.200;2023-04-25T10:35:44;100064.09;;;8.98;87.99
7200;BME280;3641;49.082;8.200;2023-04-25T10:38:13;100055.38;;;9.02;87.36
7200;BME280;3641;49.082;8.200;2023-04-25T10:40:40;100065.06;;;9.05;89.75
7200;BME280;3641;49.082;8.200;2023-04-25T10:43:39;100069.53;;;8.75;90.17
7200;BME280;3641;49.082;8.200;2023-04-25T10:46:16;100069.66;;;8.81;91.55
7200;BME280;3641;49.082;8.200;2023-04-25T10:48:50;100072.50;;;8.88;89.32
7200;BME280;3641;49.082;8.200;2023-04-25T10:51:19;100076.94;;;8.89;89.17
7200;BME280;3641;49.082;8.200;2023-04-25T10:53:46;100080.25;;;8.76;88.45
7200;BME280;3641;49.082;8.200;2023-04-25T10:56:16;100079.53;;;8.82;87.84
7200;BME280;3641;49.082;8.200;2023-04-25T10:58:45;100084.41;;;8.87;86.44
7200;BME280;3641;49.082;8.200;2023-04-25T11:01:12;100088.22;;;9.01;86.25
7200;BME280;3641;49.082;8.200;2023-04-25T11:03:43;100081.59;;;9.03;86.07
7200;BME280;3641;49.082;8.200;2023-04-25T11:06:18;100086.75;;;8.67;89.81
7200;BME280;3641;49.082;8.200;2023-04-25T11:08:48;100097.81;;;8.65;88.84
7200;BME280;3641;49.082;8.200;2023-04-25T11:11:15;100087.88;;;8.49;90.52
7200;BME280;3641;49.082;8.200;2023-04-25T11:13:41;100097.34;;;8.62;90.02
7200;BME280;3641;49.082;8.200;2023-04-25T11:16:09;100096.75;;;8.43;90.53
7200;BME280;3641;49.082;8.200;2023-04-25T11:18:35;100095.56;;;8.46;91.78
7200;BME280;3641;49.082;8.200;2023-04-25T11:21:03;100105.22;;;8.48;90.40
7200;BME280;3641;49.082;8.200;2023-04-25T11:23:30;100103.69;;;8.77;88.23
7200;BME280;3641;49.082;8.200;2023-04-25T11:25:56;100101.78;;;8.54;90.81
7200;BME280;3641;49.082;8.200;2023-04-25T11:28:25;100100.78;;;8.56;89.32
7200;BME280;3641;49.082;8.200;2023-04-25T11:30:52;100106.69;;;8.19;91.06
7200;BME280;3641;49.082;8.200;2023-04-25T11:33:24;100108.47;;;8.44;88.40
7200;BME280;3641;49.082;8.200;2023-04-25T11:35:53;100113.56;;;8.47;88.07
7200;BME280;3641;49.082;8.200;2023-04-25T11:38:20;100106.28;;;8.31;88.72
7200;BME280;3641;49.082;8.200;2023-04-25T11:40:49;100110.31;;;8.51;88.60
7200;BME280;3641;49.082;8.200;2023-04-25T11:43:17;100111.00;;;8.45;90.34
7200;BME280;3641;49.082;8.200;2023-04-25T11:45:46;100109.47;;;8.51;89.77
7200;BME280;3641;49.082;8.200;2023-04-25T11:48:13;100112.00;;;8.52;90.44
7200;BME280;3641;49.082;8.200;2023-04-25T11:50:41;100113.69;;;8.85;86.36
7200;BME280;3641;49.082;8.200;2023-04-25T11:53:08;100115.56;;;8.84;85.59
7200;BME280;3641;49.082;8.200;2023-04-25T11:55:36;100121.56;;;8.80;85.06
7200;BME280;3641;49.082;8.200;2023-04-25T11:58:04;100118.19;;;8.78;85.20
7200;BME280;3641;49.082;8.200;2023-04-25T12:00:31;100120.91;;;8.69;85.14
7200;BME280;3641;49.082;8.200;2023-04-25T12:02:58;100119.69;;;8.49;85.51
7200;BME280;3641;49.082;8.200;2023-04-25T12:05:26;100119.22;;;8.29;88.33
7200;BME280;3641;49.082;8.200;2023-04-25T12:07:54;100112.84;;;8.84;85.88
7200;BME280;3641;49.082;8.200;2023-04-25T12:10:21;100115.03;;;8.58;85.33
7200;BME280;3641;49.082;8.200;2023-04-25T12:12:48;100110.09;;;8.61;87.93
7200;BME280;3641;49.082;8.200;2023-04-25T12:15:16;100115.53;;;8.61;87.83
7200;BME280;3641;49.082;8.200;2023-04-25T12:17:45;100097.06;;;8.80;86.60
7200;BME280;3641;49.082;8.200;2023-04-25T12:20:14;100100.91;;;9.32;86.29
7200;BME280;3641;49.082;8.200;2023-04-25T12:22:44;100095.53;;;9.47;88.47
7200;BME280;3641;49.082;8.200;2023-04-25T12:25:13;100096.63;;;9.37;87.53
7200;BME280;3641;49.082;8.200;2023-04-25T12:27:40;100092.31;;;9.43;85.19
7200;BME280;3641;49.082;8.200;2023-04-25T12:30:09;100090.69;;;9.72;86.17
7200;BME280;3641;49.082;8.200;2023-04-25T12:32:36;100101.69;;;9.78;85.39
7200;BME280;3641;49.082;8.200;2023-04-25T12:35:04;100109.59;;;9.88;83.98
7200;BME280;3641;49.082;8.200;2023-04-25T12:37:31;100113.50;;;9.56;82.45
7200;BME280;3641;49.082;8.200;2023-04-25T12:39:58;100113.53;;;9.48;82.23
7200;BME280;3641;49.082;8.200;2023-04-25T12:42:25;100120.69;;;9.87;83.65
7200;BME280;3641;49.082;8.200;2023-04-25T12:44:52;100112.50;;;9.87;81.27
7200;BME280;3641;49.082;8.200;2023-04-25T12:47:19;100114.84;;;10.05;81.87
7200;BME280;3641;49.082;8.200;2023-04-25T12:49:46;100113.78;;;9.76;83.23
7200;BME280;3641;49.082;8.200;2023-04-25T12:52:12;100112.78;;;10.07;83.18
7200;BME280;3641;49.082;8.200;2023-04-25T12:54:38;100112.34;;;10.18;83.36
7200;BME280;3641;49.082;8.200;2023-04-25T12:57:05;100127.75;;;9.96;82.21
7200;BME280;3641;49.082;8.200;2023-04-25T12:59:33;100126.88;;;9.95;84.05
7200;BME280;3641;49.082;8.200;2023-04-25T13:01:59;100124.22;;;9.57;82.29
7200;BME280;3641;49.082;8.200;2023-04-25T13:04:26;100114.50;;;9.55;81.40
7200;BME280;3641;49.082;8.200;2023-04-25T13:06:52;100113.72;;;9.84;82.00
7200;BME280;3641;49.082;8.200;2023-04-25T13:09:19;100119.56;;;10.11;82.71
7200;BME280;3641;49.082;8.200;2023-04-25T13:11:48;100117.56;;;10.05;82.29
7200;BME280;3641;49.082;8.200;2023-04-25T13:14:15;100122.09;;;9.97;82.17
7200;BME280;3641;49.082;8.200;2023-04-25T13:16:43;100118.34;;;10.13;82.23
7200;BME280;3641;49.082;8.200;2023-04-25T13:19:09;100117.50;;;10.28;80.90
7200;BME280;3641;49.082;8.200;2023-04-25T13:21:36;100112.59;;;10.08;80.42
7200;BME280;3641;49.082;8.200;2023-04-25T13:24:03;100122.69;;;10.38;81.39
7200;BME280;3641;49.082;8.200;2023-04-25T13:26:30;100124.38;;;10.09;80.67
7200;BME280;3641;49.082;8.200;2023-04-25T13:28:57;100122.94;;;9.98;79.87
7200;BME280;3641;49.082;8.200;2023-04-25T13:31:23;100122.94;;;10.13;81.40